Stations météo

réclame
Mon MeteoGroup
Bealach, Grande-Bretagne (3039): Température de l'air & dewpoint: 12.01.2020 01:00:00 - 18.01.2020 01:00:00 (GMT)Bealach, Grande-Bretagne (3039): Vitesse du vent & gusts: 12.01.2020 01:00:00 - 18.01.2020 01:00:00 (GMT)Bealach, Grande-Bretagne (3039): Direction du vent: 12.01.2020 01:00:00 - 18.01.2020 01:00:00 (GMT)
Date & Time tt [°C] td [°C] ff [km/h] ff [knt] fx [km/h] fx [knt] dd
18.01.2020 01:00:00 -1,6 -1,6 54 29 78 42 NW
18.01.2020 00:00:00 -1,5 -1,5 63 34 98 53 NW
17.01.2020 23:00:00 -1,5 -1,5 63 34 89 48 NW
17.01.2020 22:00:00 -1,3 -1,3 52 28 83 45 WNW
17.01.2020 21:00:00 -1,6 -1,6 59 32 78 42 WNW
17.01.2020 20:00:00 -1,4 -1,4 41 22 57 31 W
17.01.2020 19:00:00 -0,9 -0,9 42 23 57 31 W
17.01.2020 18:00:00 -0,2 -0,2 48 26 63 34 WNW
17.01.2020 17:00:00 -0,1 -0,1 48 26 61 33 W
17.01.2020 16:00:00 0,0 0,0 48 26 65 35 WNW
17.01.2020 15:00:00 0,0 0,0 50 27 68 37 W
17.01.2020 14:00:00 0,1 0,1 44 24 70 38 W
17.01.2020 13:00:00 0,7 0,7 52 28 68 37 W
17.01.2020 12:00:00 0,3 0,3 57 31 70 38 WSW
17.01.2020 11:00:00 0,3 0,3 50 27 65 35 WSW
17.01.2020 10:00:00 -0,1 -0,1 44 24 59 32 WSW
17.01.2020 09:00:00 -0,2 -0,2 44 24 100 54 SW
17.01.2020 08:00:00 -0,1 -0,1 78 42 96 52 SSW
17.01.2020 07:00:00 0,0 0,0 70 38 107 58 SSW
17.01.2020 06:00:00 -0,7 -0,7 91 49 119 64 SSW
17.01.2020 05:00:00 0,4 0,4 83 45 106 57 SSW
17.01.2020 04:00:00 0,4 0,4 68 37 122 66 SSW
17.01.2020 03:00:00 0,3 0,3 85 46 122 66 SSW
17.01.2020 02:00:00 0,6 0,6 98 53 131 71 SSW
17.01.2020 01:00:00 1,0 1,0 98 53 133 72 SSW
17.01.2020 00:00:00 1,1 1,1 93 50 126 68 SSW
16.01.2020 23:00:00 1,5 1,5 80 43 120 65 SSW
16.01.2020 22:00:00 1,4 1,4 44 24 96 52 S
16.01.2020 21:00:00 1,4 1,4 39 21 94 51 S
16.01.2020 20:00:00 1,7 1,7 54 29 89 48 S
16.01.2020 19:00:00 2,5 2,5 70 38 87 47 SSW
16.01.2020 18:00:00 1,7 1,7 28 15 70 38 SE
16.01.2020 17:00:00 1,8 1,8 16 9 67 36 ESE
16.01.2020 16:00:00 2,3 2,3 21 11 80 43 SE
16.01.2020 15:00:00 3,4 3,4 16 9 54 29 E
16.01.2020 14:00:00 3,0 3,0 16 9 81 44 E
16.01.2020 13:00:00 2,9 2,9 52 28 67 36 SSE
16.01.2020 12:00:00 3,1 3,1 35 19 91 49 SSE
16.01.2020 11:00:00 3,1 3,1 54 29 85 46 SSE
16.01.2020 10:00:00 2,2 2,2 46 25 72 39 SSE
16.01.2020 09:00:00 1,1 1,1 35 19 63 34 SE
16.01.2020 08:00:00 0,6 0,6 35 19 76 41 SE
16.01.2020 07:00:00 0,5 0,5 35 19 78 42 SSE
16.01.2020 06:00:00 0,9 0,9 39 21 80 43 S
16.01.2020 05:00:00 0,4 0,4 28 15 76 41 S
16.01.2020 04:00:00 0,3 0,3 57 31 94 51 S
16.01.2020 03:00:00 0,8 0,8 63 34 89 48 S
16.01.2020 02:00:00 1,1 1,1 61 33 76 41 SSW
16.01.2020 01:00:00 -0,2 -0,2 50 27 81 44 SW
16.01.2020 00:00:00 0,8 0,8 70 38 85 46 SSW
15.01.2020 23:00:00 1,0 1,0 55 30 74 40 SW
15.01.2020 22:00:00 0,8 0,8 55 30 96 52 SW
15.01.2020 21:00:00 0,3 0,3 89 48 115 62 WSW
15.01.2020 20:00:00 1,3 1,3 80 43 94 51 WSW
15.01.2020 19:00:00 0,8 0,8 65 35 102 55 WSW
15.01.2020 18:00:00 1,7 1,7 74 40 100 54 WSW
15.01.2020 17:00:00 1,4 1,4 70 38 83 45 WSW
15.01.2020 16:00:00 1,4 1,4 67 36 85 46 WSW
15.01.2020 15:00:00 1,7 1,7 54 29 85 46 WSW
15.01.2020 14:00:00 1,7 1,7 39 21 70 38 SW
15.01.2020 13:00:00 1,0 1,0 42 23 80 43 SW
15.01.2020 12:00:00 1,6 1,6 68 37 137 74 SW
15.01.2020 11:00:00 1,1 1,1 109 59 144 78 SSW
15.01.2020 10:00:00 -0,1 -0,1 85 46 130 70 SSW
15.01.2020 09:00:00 -0,1 -0,1 85 46 131 71 SSW
15.01.2020 08:00:00 -0,1 -0,1 85 46 124 67 S
15.01.2020 07:00:00 -0,2 -0,2 98 53 148 80 SSW
15.01.2020 06:00:00 -0,2 -0,2 93 50 133 72 SSW
15.01.2020 05:00:00 -0,6 -0,6 87 47 133 72 S
15.01.2020 04:00:00 -0,8 -0,8 91 49 131 71 S
15.01.2020 03:00:00 -1,0 -1,0 87 47 130 70 SSW
15.01.2020 02:00:00 -1,5 -1,5 102 55 130 70 SSW
15.01.2020 01:00:00 -2,2 -2,2 98 53 131 71 SW
15.01.2020 00:00:00 -1,3 -1,3 94 51 126 68 SSW
14.01.2020 23:00:00 -1,3 -1,3 76 41 106 57 SSW
14.01.2020 22:00:00 -1,5 -1,5 80 43 111 60 S
14.01.2020 21:00:00 -2,2 -2,2 72 39 124 67 S
14.01.2020 20:00:00 -1,4 -1,4 80 43 102 55 SSW
14.01.2020 19:00:00 -2,9 -2,9 70 38 104 56 SW
14.01.2020 18:00:00 -1,4 -1,4 74 40 102 55 S
14.01.2020 17:00:00 -2,1 -2,1 80 43 98 53 SSW
14.01.2020 16:00:00 -2,1 -2,1 83 45 107 58 S
14.01.2020 15:00:00 -2,2 -2,2 65 35 107 58 S
14.01.2020 14:00:00 -2,3 -2,3 76 41 113 61 S
14.01.2020 13:00:00 -1,9 -1,9 65 35 131 71 S
14.01.2020 12:00:00 -1,4 -1,4 52 28 120 65 S
14.01.2020 11:00:00 -2,1 -2,1 76 41 111 60 S
14.01.2020 10:00:00 -1,7 -1,7 61 33 107 58 SSW
14.01.2020 09:00:00 -1,7 -2,0 76 41 122 66 SSW
14.01.2020 08:00:00 -1,5 -2,8 70 38 109 59 SSW
14.01.2020 07:00:00 -2,3 -2,3 80 43 124 67 SSW
14.01.2020 06:00:00 -2,6 -2,6 83 45 115 62 SW
14.01.2020 05:00:00 -2,8 -2,9 85 46 120 65 SW
14.01.2020 04:00:00 -2,0 -2,6 89 48 124 67 SW
14.01.2020 03:00:00 -2,5 -2,5 80 43 122 66 SW
14.01.2020 02:00:00 -2,8 -2,9 100 54 133 72 SW
14.01.2020 01:00:00 -0,1 -0,7 89 48 135 73 SSW
14.01.2020 00:00:00 -0,2 -0,2 91 49 130 70 SSW
13.01.2020 23:00:00 0,8 0,8 104 56 141 76 SSW
13.01.2020 22:00:00 0,8 0,8 113 61 163 88 SSW
13.01.2020 21:00:00 1,2 1,2 117 63 170 92 SSW
13.01.2020 20:00:00 1,5 1,5 135 73 181 98 SSW
13.01.2020 19:00:00 0,7 0,7 94 51 185 100 SSE
13.01.2020 18:00:00 2,0 1,3 87 47 161 87 SSE
13.01.2020 17:00:00 0,6 0,6 74 40 115 62 SSE
13.01.2020 16:00:00 0,4 0,4 22 12 85 46 WNW
13.01.2020 15:00:00 1,3 1,3 26 14 124 67 E
13.01.2020 14:00:00 2,4 0,8 44 24 159 86 SE
13.01.2020 13:00:00 3,1 -1,2 107 58 133 72 SSE
13.01.2020 12:00:00 2,7 -1,7 78 42 117 63 SSE
13.01.2020 11:00:00 2,1 1,5 85 46 126 68 SSE
13.01.2020 10:00:00 1,5 1,5 102 55 139 75 SSE
13.01.2020 09:00:00 1,2 1,2 68 37 141 76 SSE
13.01.2020 08:00:00 1,0 1,0 61 33 122 66 SSE
13.01.2020 07:00:00 0,4 0,4 41 22 100 54 S
13.01.2020 06:00:00 -0,2 -0,2 34 18 93 50 SSE
13.01.2020 05:00:00 -0,3 -0,3 48 26 106 57 S
13.01.2020 04:00:00 -0,4 -0,4 41 22 94 51 S
13.01.2020 03:00:00 -0,3 -0,3 35 19 100 54 S
13.01.2020 02:00:00 -0,2 -0,2 41 22 104 56 S
13.01.2020 01:00:00 -0,1 -0,1 81 44 104 56 S
13.01.2020 00:00:00 -0,1 -0,1 65 35 96 52 S
12.01.2020 23:00:00 0,1 0,1 74 40 96 52 SSW
12.01.2020 22:00:00 0,0 0,0 78 42 98 53 SSW
12.01.2020 21:00:00 -0,1 -0,1 72 39 93 50 SSW
12.01.2020 20:00:00 -0,2 -0,2 67 36 81 44 SSW
12.01.2020 19:00:00 -0,8 -0,8 57 31 68 37 SSW
12.01.2020 18:00:00 -1,6 -1,6 41 22 81 44 WSW
12.01.2020 17:00:00 -1,2 -1,2 41 22 61 33 SW
12.01.2020 16:00:00 -1,5 -1,5 46 25 61 33 WSW
12.01.2020 15:00:00 -1,6 -1,6 54 29 68 37 WSW
12.01.2020 14:00:00 -1,5 -1,5 48 26 67 36 WSW
12.01.2020 13:00:00 -1,6 -1,6 46 25 76 41 WSW
12.01.2020 12:00:00 -1,8 -1,8 39 21 57 31 WSW
12.01.2020 11:00:00 -2,2 -2,2 48 26 61 33 WSW
12.01.2020 10:00:00 -1,5 -1,5 46 25 57 31 WSW
12.01.2020 09:00:00 -1,6 -1,6 41 22 55 30 WSW
12.01.2020 08:00:00 -1,6 -1,6 46 25 63 34 W
12.01.2020 07:00:00 -2,1 -2,1 48 26 83 45 W
12.01.2020 06:00:00 -0,6 -0,6 39 21 65 35 SSW
12.01.2020 05:00:00 -1,0 -1,0 50 27 67 36 S
12.01.2020 04:00:00 -0,3 -0,3 50 27 72 39 SSW
12.01.2020 03:00:00 -0,3 -0,3 41 22 50 27 SSW
12.01.2020 02:00:00 -0,6 -0,6 39 21 48 26 SSW
12.01.2020 01:00:00 -1,3 -1,3 29 16 - - SW

tt = Température de l'air
td = dewpoint
ff = Vitesse du vent
fx = gusts
dd = Direction du vent

stations d'obs. à proximité